Time;durP1;ratioP1;P1;durP2;ratioP2;P2;SDS_P1;SDS_P2;PMS_P1;PMS_P2;Temp;Humidity;BMP_temperature;BMP_pressure;BME280_temperature;BME280_humidity;BME280_pressure;Samples;Min_cycle;Max_cycle;Signal;HPM_P1;HPM_P2
2023/09/15 00:02:25;;;;;;;9.02;5.55;;;11.40;99.90;;;;;;4997760;28;20568;-78
2023/09/15 00:04:51;;;;;;;9.13;5.03;;;11.40;99.90;;;;;;4992991;28;20188;-79
2023/09/15 00:07:17;;;;;;;8.95;5.40;;;11.50;99.90;;;;;;4978894;28;20227;-79
2023/09/15 00:09:43;;;;;;;7.80;5.35;;;11.50;99.90;;;;;;4979087;28;20212;-78
2023/09/15 00:12:09;;;;;;;8.50;4.80;;;11.40;99.90;;;;;;4978911;28;20219;-78
2023/09/15 00:14:35;;;;;;;7.05;5.28;;;11.40;99.90;;;;;;4979015;28;20187;-78
2023/09/15 00:17:03;;;;;;;9.57;5.25;;;11.30;99.90;;;;;;4996025;28;20560;-78
2023/09/15 00:19:29;;;;;;;9.18;6.00;;;11.30;99.90;;;;;;4996390;28;20243;-78
2023/09/15 00:21:55;;;;;;;11.90;5.65;;;11.20;99.90;;;;;;4978426;28;20180;-78
2023/09/15 00:24:21;;;;;;;10.15;4.97;;;11.10;99.90;;;;;;4978837;28;20189;-78
2023/09/15 00:26:48;;;;;;;8.88;5.18;;;11.00;99.90;;;;;;4978531;28;20197;-79
2023/09/15 00:29:14;;;;;;;7.65;5.28;;;11.00;99.90;;;;;;4996565;28;20185;-79
2023/09/15 00:31:41;;;;;;;6.18;4.85;;;11.00;99.90;;;;;;4978609;28;20679;-78
2023/09/15 00:34:06;;;;;;;7.07;4.93;;;10.90;99.90;;;;;;4978591;28;20207;-78
2023/09/15 00:36:32;;;;;;;7.90;5.43;;;10.90;99.90;;;;;;4997496;28;20183;-78
2023/09/15 00:38:58;;;;;;;7.68;5.40;;;10.80;99.90;;;;;;4998223;28;20187;-79
2023/09/15 00:41:24;;;;;;;9.68;5.18;;;10.80;99.90;;;;;;4997983;28;20172;-79
2023/09/15 00:43:51;;;;;;;7.15;5.05;;;10.80;99.90;;;;;;4998031;28;20791;-79
2023/09/15 00:46:18;;;;;;;6.15;5.22;;;10.80;99.90;;;;;;4998044;28;20172;-78
2023/09/15 00:48:45;;;;;;;8.00;5.60;;;10.80;99.90;;;;;;4998802;28;20588;-78
2023/09/15 00:51:12;;;;;;;9.15;5.15;;;10.80;99.90;;;;;;5015743;28;20172;-78
2023/09/15 00:53:39;;;;;;;7.18;5.28;;;10.80;99.90;;;;;;4998385;28;20207;-78
2023/09/15 00:56:07;;;;;;;10.27;5.50;;;10.80;99.90;;;;;;4998843;28;20183;-79
2023/09/15 00:58:36;;;;;;;10.73;5.70;;;10.80;99.90;;;;;;4999520;28;20731;-78
2023/09/15 01:01:06;;;;;;;8.18;5.50;;;10.80;99.90;;;;;;4998703;28;20234;-78
2023/09/15 01:03:34;;;;;;;5.80;5.20;;;10.80;99.90;;;;;;4998661;28;20204;-79
2023/09/15 01:05:59;;;;;;;8.30;5.50;;;10.80;99.90;;;;;;4998880;28;20180;-79
2023/09/15 01:08:25;;;;;;;8.35;5.28;;;10.80;99.90;;;;;;4998489;28;20199;-79
2023/09/15 01:10:51;;;;;;;9.32;5.88;;;10.80;99.90;;;;;;4998827;28;20551;-79
2023/09/15 01:13:17;;;;;;;9.70;5.32;;;10.70;99.90;;;;;;5016326;28;20256;-78
2023/09/15 01:16:02;;;;;;;8.95;5.35;;;10.70;99.90;;;;;;4998555;28;20184;-78
2023/09/15 01:18:28;;;;;;;7.25;5.40;;;10.70;99.90;;;;;;4998261;28;20722;-78
2023/09/15 01:21:24;;;;;;;13.50;6.28;;;10.70;99.90;;;;;;5015801;28;20184;-78
2023/09/15 01:24:17;;;;;;;11.60;5.68;;;10.70;99.90;;;;;;4998965;28;20203;-78
2023/09/15 01:26:55;;;;;;;9.70;5.85;;;10.70;99.90;;;;;;5016527;28;20283;-78
2023/09/15 01:29:46;;;;;;;8.35;5.57;;;10.80;99.90;;;;;;5016126;28;20203;-79
2023/09/15 01:32:14;;;;;;;6.45;4.97;;;10.80;99.90;;;;;;4998389;28;20172;-78
2023/09/15 01:34:52;;;;;;;9.30;5.75;;;10.80;99.90;;;;;;5015916;28;20712;-78
2023/09/15 01:37:19;;;;;;;8.00;5.55;;;10.80;99.90;;;;;;4997927;28;20204;-78
2023/09/15 01:39:46;;;;;;;8.70;5.85;;;10.60;99.90;;;;;;4998209;28;20544;-78
2023/09/15 01:42:12;;;;;;;6.07;4.95;;;10.60;99.90;;;;;;4997853;28;20226;-79
2023/09/15 01:44:37;;;;;;;7.90;5.47;;;10.50;99.90;;;;;;4997989;28;20187;-79
2023/09/15 01:47:08;;;;;;;9.68;6.07;;;10.40;99.90;;;;;;4997927;28;20207;-78
2023/09/15 01:49:35;;;;;;;6.00;5.18;;;10.40;99.90;;;;;;4998259;28;20179;-78
2023/09/15 01:52:02;;;;;;;7.90;5.55;;;10.40;99.90;;;;;;4999613;28;20176;-79
2023/09/15 01:54:27;;;;;;;7.38;5.97;;;10.40;99.90;;;;;;5002600;28;20176;-78
2023/09/15 01:56:53;;;;;;;9.88;5.97;;;10.30;99.90;;;;;;5020113;28;20218;-79
2023/09/15 01:59:19;;;;;;;10.48;5.80;;;10.30;99.90;;;;;;5021501;28;20244;-79
2023/09/15 02:01:45;;;;;;;8.50;5.72;;;10.30;99.90;;;;;;5003143;28;20708;-78
2023/09/15 02:04:11;;;;;;;21.58;6.30;;;10.30;99.90;;;;;;5000783;28;20211;-78
2023/09/15 02:06:37;;;;;;;8.35;5.43;;;10.30;99.90;;;;;;5001169;28;20188;-79
2023/09/15 02:09:06;;;;;;;9.35;6.03;;;10.40;99.90;;;;;;5000983;28;20172;-78
2023/09/15 02:11:32;;;;;;;9.68;5.65;;;10.40;99.90;;;;;;5000752;28;20176;-78
2023/09/15 02:13:58;;;;;;;7.38;6.20;;;10.40;99.90;;;;;;5000267;28;20275;-79
2023/09/15 02:16:27;;;;;;;9.02;6.00;;;10.40;99.90;;;;;;5000030;28;20275;-78
2023/09/15 02:18:53;;;;;;;8.80;5.85;;;10.40;99.90;;;;;;5000078;28;20180;-79
2023/09/15 02:21:19;;;;;;;12.05;5.72;;;10.40;99.90;;;;;;5000896;28;20186;-79
2023/09/15 02:23:45;;;;;;;15.32;6.25;;;10.40;99.90;;;;;;5017813;28;20206;-79
2023/09/15 02:26:10;;;;;;;7.68;6.15;;;10.30;99.90;;;;;;5000138;28;20176;-79
2023/09/15 02:28:36;;;;;;;7.35;5.82;;;10.20;99.90;;;;;;5018042;28;20327;-78
2023/09/15 02:31:06;;;;;;;8.90;5.68;;;10.20;99.90;;;;;;5000516;28;20199;-78
2023/09/15 02:33:32;;;;;;;9.20;5.60;;;10.20;99.90;;;;;;5001023;28;20179;-79
2023/09/15 02:35:58;;;;;;;8.82;5.80;;;10.30;99.90;;;;;;5002614;28;20257;-78
2023/09/15 02:38:24;;;;;;;10.57;6.50;;;10.30;99.90;;;;;;5002186;28;20671;-79
2023/09/15 02:40:49;;;;;;;7.95;5.78;;;10.30;99.90;;;;;;5000797;28;20670;-78
2023/09/15 02:43:15;;;;;;;7.90;5.95;;;10.20;99.90;;;;;;4999749;28;20203;-79
2023/09/15 02:45:41;;;;;;;9.85;5.68;;;10.10;99.90;;;;;;5000111;28;20233;-78
2023/09/15 02:48:07;;;;;;;12.05;5.90;;;10.00;99.90;;;;;;5000231;28;20291;-79
2023/09/15 02:50:32;;;;;;;10.75;5.90;;;10.00;99.90;;;;;;5000445;28;20183;-79
2023/09/15 02:53:00;;;;;;;7.18;5.53;;;9.90;99.90;;;;;;5000209;28;20198;-79
2023/09/15 02:55:25;;;;;;;8.63;5.50;;;9.90;99.90;;;;;;5000518;28;20545;-78
2023/09/15 02:57:52;;;;;;;11.43;6.15;;;9.90;99.90;;;;;;4999914;28;20203;-79
2023/09/15 03:00:19;;;;;;;8.27;5.30;;;9.90;99.90;;;;;;5000441;28;20275;-79
2023/09/15 03:02:45;;;;;;;6.45;5.72;;;9.90;99.90;;;;;;4999936;28;20210;-78
2023/09/15 03:05:12;;;;;;;8.23;5.30;;;10.00;99.90;;;;;;5017644;28;20207;-78
2023/09/15 03:07:39;;;;;;;8.25;5.65;;;10.00;99.90;;;;;;5018079;28;20211;-78
2023/09/15 03:10:09;;;;;;;8.48;5.60;;;10.00;99.90;;;;;;5000431;28;20180;-79
2023/09/15 03:12:35;;;;;;;9.18;5.45;;;9.90;99.90;;;;;;5000652;28;20255;-78
2023/09/15 03:15:05;;;;;;;7.97;5.72;;;9.90;99.90;;;;;;5000709;28;20191;-79
2023/09/15 03:17:32;;;;;;;9.73;5.90;;;10.00;99.90;;;;;;4999999;28;20638;-78
2023/09/15 03:19:58;;;;;;;7.40;5.68;;;10.00;99.90;;;;;;5001092;28;20525;-79
2023/09/15 03:22:24;;;;;;;6.10;5.50;;;10.00;99.90;;;;;;5000434;28;20207;-79
2023/09/15 03:24:49;;;;;;;7.30;5.75;;;10.00;99.90;;;;;;5018566;28;20157;-79
2023/09/15 03:27:15;;;;;;;11.27;5.57;;;10.00;99.90;;;;;;5000783;28;20664;-79
2023/09/15 03:29:41;;;;;;;9.95;6.13;;;10.00;99.90;;;;;;5018274;28;20188;-78
2023/09/15 03:32:07;;;;;;;7.15;5.57;;;10.00;99.90;;;;;;5016415;28;20184;-78
2023/09/15 03:34:32;;;;;;;7.82;5.22;;;10.00;99.90;;;;;;4998238;28;20626;-78
2023/09/15 03:37:01;;;;;;;8.13;5.90;;;9.90;99.90;;;;;;4982002;28;20201;-79
2023/09/15 03:39:27;;;;;;;8.27;5.43;;;9.80;99.90;;;;;;4981284;28;20208;-79
2023/09/15 03:41:53;;;;;;;7.40;5.40;;;9.70;99.90;;;;;;4992975;28;20184;-79
2023/09/15 03:44:20;;;;;;;8.38;5.90;;;9.70;99.90;;;;;;5000722;28;20200;-78
2023/09/15 03:46:47;;;;;;;9.13;5.70;;;9.70;99.90;;;;;;5006832;28;20205;-78
2023/09/15 03:49:13;;;;;;;7.47;5.85;;;9.60;99.90;;;;;;4980306;28;20180;-78
2023/09/15 03:51:38;;;;;;;7.57;5.85;;;9.60;99.90;;;;;;4991640;28;20180;-78
2023/09/15 03:54:04;;;;;;;7.88;5.78;;;9.60;99.90;;;;;;4999503;28;20180;-78
2023/09/15 03:56:31;;;;;;;7.87;5.80;;;9.60;99.90;;;;;;5017023;28;20202;-78
2023/09/15 03:58:58;;;;;;;7.60;5.40;;;9.60;99.90;;;;;;4998992;28;20183;-79
2023/09/15 04:01:25;;;;;;;7.95;5.03;;;9.50;99.90;;;;;;5000417;28;20670;-79
2023/09/15 04:03:51;;;;;;;6.55;4.75;;;9.50;99.90;;;;;;5000667;28;20206;-79
2023/09/15 04:06:17;;;;;;;6.47;5.30;;;9.40;99.90;;;;;;5000088;28;20188;-78
2023/09/15 04:08:43;;;;;;;6.15;4.57;;;9.40;99.90;;;;;;5000785;28;20196;-78
2023/09/15 04:11:09;;;;;;;6.17;4.93;;;9.30;99.90;;;;;;5000083;28;20210;-79
2023/09/15 04:13:34;;;;;;;8.23;5.27;;;9.30;99.90;;;;;;4999139;28;20196;-79
2023/09/15 04:16:00;;;;;;;7.13;5.00;;;9.30;99.90;;;;;;4998021;28;20671;-78
2023/09/15 04:18:29;;;;;;;6.20;5.00;;;9.10;99.90;;;;;;5016088;28;20218;-77
2023/09/15 04:20:55;;;;;;;6.80;5.00;;;9.10;99.90;;;;;;4998879;28;20183;-79
2023/09/15 04:23:20;;;;;;;6.40;4.80;;;9.00;99.90;;;;;;5017320;22;20227;-87
2023/09/15 04:25:51;;;;;;;10.03;5.27;;;9.00;99.90;;;;;;5019048;28;20226;-87
2023/09/15 04:28:17;;;;;;;8.40;5.63;;;9.00;99.90;;;;;;5019277;28;20167;-88
2023/09/15 04:30:42;;;;;;;5.87;4.90;;;9.00;99.90;;;;;;5037238;28;20186;-89
2023/09/15 04:33:09;;;;;;;7.57;5.23;;;8.90;99.90;;;;;;5018408;28;20265;-87
2023/09/15 04:35:34;;;;;;;5.10;4.60;;;8.90;99.90;;;;;;5036036;28;20594;-88
2023/09/15 04:38:02;;;;;;;5.57;4.47;;;9.00;99.90;;;;;;5018088;28;20183;-88
2023/09/15 04:40:28;;;;;;;5.80;4.60;;;8.90;99.90;;;;;;5020433;28;20199;-86
2023/09/15 04:42:53;;;;;;;5.90;5.20;;;9.00;99.90;;;;;;5042901;28;20226;-88
2023/09/15 04:45:19;;;;;;;7.00;5.33;;;9.00;99.90;;;;;;5021765;28;20175;-91
2023/09/15 04:47:46;;;;;;;11.80;6.00;;;9.00;99.90;;;;;;5022500;28;20661;-84
2023/09/15 04:50:12;;;;;;;8.37;6.10;;;8.90;99.90;;;;;;5020522;28;20190;-86
2023/09/15 04:52:37;;;;;;;9.70;5.30;;;8.90;99.90;;;;;;5001394;28;20696;-87
2023/09/15 04:55:05;;;;;;;6.40;5.00;;;8.80;99.90;;;;;;5001349;28;20176;-89
2023/09/15 04:57:31;;;;;;;5.90;4.57;;;8.80;99.90;;;;;;5001487;28;20179;-87
2023/09/15 05:00:12;;;;;;;7.03;5.10;;;8.80;99.90;;;;;;5000546;28;20631;-90
2023/09/15 05:02:44;;;;;;;6.63;4.70;;;8.70;99.90;;;;;;5001051;28;20195;-88
2023/09/15 05:05:11;;;;;;;6.60;5.30;;;8.80;99.90;;;;;;4986784;28;20168;-88
2023/09/15 05:07:37;;;;;;;7.13;5.20;;;8.90;99.90;;;;;;4999199;28;20199;-85
2023/09/15 05:10:03;;;;;;;6.47;5.03;;;8.70;99.90;;;;;;5000676;28;20546;-86
2023/09/15 05:12:35;;;;;;;7.30;5.43;;;8.60;99.90;;;;;;4999377;28;20179;-86
2023/09/15 05:15:03;;;;;;;6.40;4.93;;;8.70;99.90;;;;;;5016988;28;20243;-89
2023/09/15 05:17:40;;;;;;;5.93;5.17;;;8.80;99.90;;;;;;4999069;28;20184;-89
2023/09/15 05:20:06;;;;;;;6.73;5.60;;;8.70;99.90;;;;;;4998589;28;20199;-86
2023/09/15 05:22:32;;;;;;;8.10;5.37;;;8.70;99.90;;;;;;4999596;28;20262;-86
2023/09/15 05:24:58;;;;;;;6.43;5.80;;;8.70;99.90;;;;;;4998749;28;20266;-86
2023/09/15 05:27:27;;;;;;;9.50;6.07;;;8.80;99.90;;;;;;5017972;28;20179;-89
2023/09/15 05:29:53;;;;;;;7.10;5.70;;;8.80;99.90;;;;;;5023975;28;20199;-88
2023/09/15 05:32:21;;;;;;;8.00;5.57;;;8.80;99.90;;;;;;5006300;28;20182;-86
2023/09/15 05:34:46;;;;;;;11.83;6.30;;;8.90;99.90;;;;;;5003917;28;20588;-89
2023/09/15 05:37:13;;;;;;;8.97;5.70;;;9.00;99.90;;;;;;5025877;28;20189;-89
2023/09/15 05:39:39;;;;;;;7.17;5.60;;;9.00;99.90;;;;;;5007345;28;20227;-88
2023/09/15 05:42:05;;;;;;;8.70;5.93;;;9.00;99.90;;;;;;5014482;28;20190;-89
2023/09/15 05:44:35;;;;;;;11.03;6.20;;;9.10;99.90;;;;;;5024829;28;20211;-90
2023/09/15 05:47:01;;;;;;;6.30;5.37;;;9.10;99.90;;;;;;5025676;28;20174;-89
2023/09/15 05:49:26;;;;;;;8.20;5.77;;;9.10;99.90;;;;;;5026759;28;20262;-88
2023/09/15 05:51:52;;;;;;;9.40;6.20;;;9.10;99.90;;;;;;5025836;28;20194;-90
2023/09/15 05:54:18;;;;;;;12.03;6.90;;;9.20;99.90;;;;;;5025268;28;20270;-89
2023/09/15 05:56:44;;;;;;;10.07;7.07;;;9.20;99.90;;;;;;5029672;28;20191;-88
2023/09/15 05:59:10;;;;;;;9.10;7.07;;;9.30;99.90;;;;;;5023746;28;20186;-90
2023/09/15 06:01:37;;;;;;;7.67;6.27;;;9.40;99.90;;;;;;5023773;28;20179;-89
2023/09/15 06:04:04;;;;;;;9.90;6.17;;;9.40;99.90;;;;;;5038903;28;20561;-90
2023/09/15 06:06:30;;;;;;;11.23;7.25;;;9.50;99.90;;;;;;5013005;28;20192;-90
2023/09/15 06:08:56;;;;;;;11.45;7.30;;;9.60;99.90;;;;;;5002633;28;20230;-88
2023/09/15 06:11:28;;;;;;;9.63;6.70;;;9.60;99.90;;;;;;5010931;28;20181;-90
2023/09/15 06:13:54;;;;;;;10.70;6.85;;;9.70;99.90;;;;;;5040041;28;20262;-90
2023/09/15 06:16:20;;;;;;;8.57;7.13;;;9.80;99.90;;;;;;5039754;28;20179;-89
2023/09/15 06:18:58;;;;;;;13.23;7.00;;;9.90;99.90;;;;;;5039441;28;20269;-88
2023/09/15 06:21:33;;;;;;;9.88;7.63;;;10.00;99.90;;;;;;5020857;28;20205;-88
2023/09/15 06:23:59;;;;;;;10.05;7.32;;;10.10;99.90;;;;;;5020169;28;20225;-89
2023/09/15 06:26:27;;;;;;;12.25;8.20;;;10.20;99.90;;;;;;5031803;28;20557;-89
2023/09/15 06:28:57;;;;;;;9.98;6.97;;;10.30;99.90;;;;;;5001409;28;20725;-89
2023/09/15 06:31:24;;;;;;;10.18;6.57;;;10.40;99.90;;;;;;5001981;28;20180;-89
2023/09/15 06:33:50;;;;;;;16.63;8.63;;;10.50;99.90;;;;;;5013687;28;20187;-89
2023/09/15 06:36:18;;;;;;;13.02;7.50;;;10.50;99.90;;;;;;5040858;28;20168;-87
2023/09/15 06:38:48;;;;;;;10.07;7.05;;;10.50;99.90;;;;;;5022811;28;20201;-88
2023/09/15 06:41:13;;;;;;;13.68;7.50;;;10.60;99.90;;;;;;5021875;28;20207;-89
2023/09/15 06:43:39;;;;;;;11.95;6.90;;;10.70;99.90;;;;;;5022158;28;20557;-87
2023/09/15 06:46:05;;;;;;;10.85;7.07;;;10.80;99.90;;;;;;5018068;28;20187;-87
2023/09/15 06:48:31;;;;;;;8.20;6.57;;;10.90;99.90;;;;;;5002028;28;20207;-88
2023/09/15 06:50:56;;;;;;;12.35;7.47;;;11.00;99.90;;;;;;5000810;28;20258;-87
2023/09/15 06:53:22;;;;;;;12.07;7.15;;;11.10;99.90;;;;;;5001322;28;20233;-87
2023/09/15 06:55:57;;;;;;;7.82;6.18;;;11.20;99.90;;;;;;5019401;28;20194;-87
2023/09/15 06:58:24;;;;;;;7.63;6.32;;;11.20;99.90;;;;;;5002059;28;20175;-88
2023/09/15 07:00:50;;;;;;;12.00;6.95;;;11.30;99.90;;;;;;5001267;28;20206;-87
2023/09/15 07:03:16;;;;;;;12.93;7.32;;;11.50;99.90;;;;;;5001599;28;20618;-87
2023/09/15 07:05:43;;;;;;;11.63;7.32;;;11.50;99.90;;;;;;5000847;28;20207;-87
2023/09/15 07:08:09;;;;;;;7.75;6.43;;;11.60;99.90;;;;;;5017905;28;20175;-87
2023/09/15 07:10:43;;;;;;;7.57;6.25;;;11.70;99.90;;;;;;5001590;28;20191;-87
2023/09/15 07:13:09;;;;;;;10.05;6.78;;;11.80;99.90;;;;;;5020342;28;20261;-87
2023/09/15 07:15:44;;;;;;;8.93;6.55;;;11.80;99.90;;;;;;5003282;28;20218;-87
2023/09/15 07:18:10;;;;;;;12.55;6.78;;;12.00;99.90;;;;;;5018879;28;20164;-88
2023/09/15 07:20:37;;;;;;;15.20;8.30;;;12.00;99.90;;;;;;5003062;28;20581;-87
2023/09/15 07:23:03;;;;;;;10.52;6.68;;;12.10;99.90;;;;;;4999633;28;20211;-87
2023/09/15 07:25:29;;;;;;;7.90;5.60;;;12.20;99.90;;;;;;5002128;28;20203;-86
2023/09/15 07:27:55;;;;;;;10.00;6.35;;;12.30;99.90;;;;;;5005238;28;20230;-87
2023/09/15 07:30:21;;;;;;;13.35;7.72;;;12.40;99.90;;;;;;5001312;28;20202;-87
2023/09/15 07:32:48;;;;;;;10.40;6.32;;;12.50;99.90;;;;;;5001278;28;20176;-86
2023/09/15 07:35:17;;;;;;;9.68;6.55;;;12.60;99.90;;;;;;5001532;28;20168;-87
2023/09/15 07:37:44;;;;;;;10.20;6.88;;;12.70;99.90;;;;;;5001166;28;20175;-87
2023/09/15 07:40:10;;;;;;;10.27;7.30;;;12.90;99.90;;;;;;5024692;28;20554;-87
2023/09/15 07:42:37;;;;;;;18.13;6.45;;;13.00;99.90;;;;;;5003016;28;20682;-87
2023/09/15 07:45:03;;;;;;;14.38;6.80;;;13.20;99.90;;;;;;5006245;28;20179;-86
2023/09/15 07:47:31;;;;;;;14.52;6.65;;;13.30;99.90;;;;;;5022692;28;20233;-86
2023/09/15 07:49:57;;;;;;;13.18;6.80;;;13.40;99.90;;;;;;5021629;28;20233;-86
2023/09/15 07:52:25;;;;;;;12.55;7.00;;;13.50;99.90;;;;;;5019550;28;20654;-86
2023/09/15 07:54:52;;;;;;;10.13;7.13;;;13.60;99.90;;;;;;5019818;28;20159;-87
2023/09/15 07:57:18;;;;;;;11.80;6.93;;;13.70;99.90;;;;;;5019222;28;20201;-88
2023/09/15 07:59:44;;;;;;;13.27;6.70;;;13.70;99.90;;;;;;5018867;28;20195;-88
2023/09/15 08:02:10;;;;;;;8.45;6.30;;;13.80;99.90;;;;;;5018735;28;20166;-88
2023/09/15 08:04:35;;;;;;;9.35;6.30;;;13.90;99.90;;;;;;5018810;28;20564;-88
2023/09/15 08:07:03;;;;;;;10.27;5.88;;;14.00;99.90;;;;;;5021472;28;20183;-87
2023/09/15 08:09:30;;;;;;;7.97;5.75;;;14.10;99.90;;;;;;5019153;28;20681;-87
2023/09/15 08:11:59;;;;;;;12.27;5.63;;;14.30;99.90;;;;;;5018987;28;20171;-86
2023/09/15 08:14:28;;;;;;;9.30;5.78;;;14.40;99.90;;;;;;5019907;28;20182;-86
2023/09/15 08:16:58;;;;;;;10.18;5.30;;;14.40;99.90;;;;;;5019582;28;20183;-87
2023/09/15 08:19:24;;;;;;;9.23;5.05;;;14.60;99.90;;;;;;5019630;28;20203;-87
2023/09/15 08:21:50;;;;;;;8.10;5.10;;;14.80;99.90;;;;;;5025198;28;20182;-87
2023/09/15 08:24:16;;;;;;;9.32;5.53;;;14.90;99.90;;;;;;5025311;28;20206;-88
2023/09/15 08:26:47;;;;;;;7.35;4.90;;;15.00;99.90;;;;;;5030706;28;20179;-87
2023/09/15 08:29:13;;;;;;;7.20;5.15;;;15.20;99.90;;;;;;5031827;28;20171;-86
2023/09/15 08:31:42;;;;;;;12.23;5.75;;;15.30;99.90;;;;;;5013361;28;20281;-87
2023/09/15 08:34:09;;;;;;;11.23;5.80;;;15.40;99.90;;;;;;5026140;28;20182;-87
2023/09/15 08:36:36;;;;;;;10.30;5.65;;;15.50;99.90;;;;;;5027807;28;20179;-88
2023/09/15 08:39:02;;;;;;;7.97;5.43;;;15.70;99.90;;;;;;5022285;28;20186;-87
2023/09/15 08:41:32;;;;;;;8.05;5.13;;;15.90;99.90;;;;;;5020796;28;20186;-88
2023/09/15 08:43:58;;;;;;;9.77;5.85;;;16.30;99.90;;;;;;5020822;28;20615;-88
2023/09/15 08:46:27;;;;;;;12.52;5.28;;;16.40;99.90;;;;;;5020340;28;20179;-88
2023/09/15 08:48:56;;;;;;;9.90;4.80;;;16.60;99.90;;;;;;5026168;28;20159;-88
2023/09/15 08:51:23;;;;;;;10.60;4.93;;;16.70;99.90;;;;;;5041037;28;20155;-87
2023/09/15 08:53:52;;;;;;;9.13;5.43;;;16.90;99.90;;;;;;5032917;28;20697;-88
2023/09/15 08:56:18;;;;;;;7.93;4.43;;;17.10;99.90;;;;;;5034576;28;20229;-87
2023/09/15 08:58:45;;;;;;;7.15;4.60;;;17.20;99.90;;;;;;5041581;28;20183;-86
2023/09/15 09:01:13;;;;;;;10.18;5.28;;;17.40;99.90;;;;;;5041474;28;20266;-88
2023/09/15 09:03:39;;;;;;;11.52;4.90;;;17.50;99.90;;;;;;5040162;28;20633;-88
2023/09/15 09:06:11;;;;;;;6.45;4.35;;;17.50;99.90;;;;;;5024700;28;20250;-88
2023/09/15 09:08:42;;;;;;;9.10;4.70;;;17.50;99.90;;;;;;5024816;28;20171;-88
2023/09/15 09:11:08;;;;;;;8.15;4.63;;;17.60;99.90;;;;;;5026556;28;20198;-88
2023/09/15 09:13:34;;;;;;;8.13;4.82;;;17.70;99.90;;;;;;5024624;28;20179;-88
2023/09/15 09:16:05;;;;;;;6.95;4.43;;;17.80;99.90;;;;;;5023752;28;20179;-88
2023/09/15 09:18:31;;;;;;;9.35;4.40;;;17.90;99.90;;;;;;5023454;28;20159;-88
2023/09/15 09:20:57;;;;;;;7.80;3.80;;;18.00;99.90;;;;;;5040665;28;20822;-88
2023/09/15 09:23:23;;;;;;;7.10;3.95;;;18.10;99.90;;;;;;5040848;28;20195;-88
2023/09/15 09:25:49;;;;;;;8.68;4.32;;;18.40;99.90;;;;;;5022906;28;20569;-88
2023/09/15 09:28:15;;;;;;;8.32;4.00;;;18.50;99.90;;;;;;5022324;28;20190;-88
2023/09/15 09:30:41;;;;;;;5.82;3.80;;;18.60;99.90;;;;;;5040421;28;20272;-88
2023/09/15 09:33:11;;;;;;;9.48;4.25;;;18.80;99.90;;;;;;5039222;28;20186;-88
2023/09/15 09:35:37;;;;;;;5.65;3.63;;;19.00;99.90;;;;;;5021596;28;20322;-88
2023/09/15 09:38:04;;;;;;;8.23;3.78;;;19.10;99.90;;;;;;5021871;28;20653;-88
2023/09/15 09:40:32;;;;;;;7.68;3.35;;;19.20;99.90;;;;;;5021520;28;20199;-88
2023/09/15 09:42:58;;;;;;;5.63;3.17;;;19.20;99.90;;;;;;5021545;28;20214;-88
2023/09/15 09:45:28;;;;;;;6.35;3.65;;;19.20;99.90;;;;;;5021932;28;20179;-88
2023/09/15 09:48:00;;;;;;;5.68;3.20;;;19.10;1.00;;;;;;5021639;28;20179;-88
2023/09/15 09:50:26;;;;;;;8.10;3.20;;;18.90;1.00;;;;;;5039188;28;20195;-88
2023/09/15 09:52:53;;;;;;;6.93;4.00;;;18.90;99.90;;;;;;5039598;28;20179;-88
2023/09/15 09:55:20;;;;;;;6.95;4.00;;;19.00;99.90;;;;;;5021219;28;20668;-88
2023/09/15 09:57:46;;;;;;;6.20;3.60;;;19.20;99.90;;;;;;5021334;28;20179;-88
2023/09/15 10:00:22;;;;;;;8.82;3.60;;;19.30;99.90;;;;;;5022688;28;20203;-88
2023/09/15 10:02:48;;;;;;;7.63;3.55;;;19.40;99.90;;;;;;5040551;28;20195;-88
2023/09/15 10:05:14;;;;;;;7.18;4.00;;;19.40;99.90;;;;;;5023502;28;20176;-88
2023/09/15 10:07:41;;;;;;;7.18;3.65;;;19.50;99.90;;;;;;5023513;28;20179;-88
2023/09/15 10:10:07;;;;;;;11.13;4.07;;;19.50;99.90;;;;;;5022324;28;20191;-88
2023/09/15 10:12:36;;;;;;;7.80;3.70;;;19.40;99.90;;;;;;5021102;28;20176;-88
2023/09/15 10:15:04;;;;;;;6.63;3.13;;;19.50;99.90;;;;;;5021032;28;20595;-88
2023/09/15 10:17:32;;;;;;;5.68;3.40;;;19.50;99.90;;;;;;5022399;28;20531;-88
2023/09/15 10:19:59;;;;;;;7.35;3.55;;;19.50;99.90;;;;;;5020916;28;20273;-88
2023/09/15 10:22:25;;;;;;;8.77;3.58;;;19.60;99.90;;;;;;5020739;28;20179;-88
2023/09/15 10:24:57;;;;;;;6.05;3.92;;;19.60;99.90;;;;;;5038145;28;20198;-88
2023/09/15 10:27:23;;;;;;;5.43;3.40;;;19.60;99.90;;;;;;5020837;28;20175;-88
2023/09/15 10:29:51;;;;;;;6.40;3.67;;;19.70;99.90;;;;;;5021195;28;20672;-88
2023/09/15 10:32:18;;;;;;;7.63;3.67;;;19.70;99.90;;;;;;5038721;28;20210;-88
2023/09/15 10:34:48;;;;;;;6.18;3.63;;;19.80;99.90;;;;;;5021311;28;20179;-88
2023/09/15 10:37:14;;;;;;;4.60;3.65;;;19.80;99.90;;;;;;5021296;28;20673;-89
2023/09/15 10:39:41;;;;;;;7.07;3.63;;;19.90;99.90;;;;;;5021492;28;20306;-88
2023/09/15 10:42:13;;;;;;;7.15;3.85;;;20.00;99.90;;;;;;5038516;28;20669;-88
2023/09/15 10:44:42;;;;;;;5.15;3.50;;;20.10;99.90;;;;;;5021090;28;20199;-88
2023/09/15 10:47:18;;;;;;;6.70;3.50;;;20.20;99.90;;;;;;5021000;28;20183;-88
2023/09/15 10:49:54;;;;;;;6.65;3.65;;;20.30;99.90;;;;;;5038246;28;20191;-88
2023/09/15 10:52:37;;;;;;;4.32;3.20;;;20.40;99.90;;;;;;5037748;28;20198;-89
2023/09/15 10:55:04;;;;;;;7.75;3.33;;;20.40;99.90;;;;;;5020680;28;20167;-88
2023/09/15 10:57:35;;;;;;;4.80;2.83;;;20.40;99.90;;;;;;5020548;28;20185;-88
2023/09/15 11:00:06;;;;;;;7.03;3.50;;;20.50;99.90;;;;;;5020503;28;20207;-89
2023/09/15 11:02:35;;;;;;;8.07;3.58;;;20.70;99.90;;;;;;5024834;28;20201;-88
2023/09/15 11:05:01;;;;;;;6.90;3.08;;;20.90;99.90;;;;;;5040835;28;20650;-89
2023/09/15 11:07:28;;;;;;;6.70;3.40;;;21.00;99.90;;;;;;5021382;28;20270;-89
2023/09/15 11:09:56;;;;;;;7.90;3.72;;;21.10;99.90;;;;;;5019525;28;20206;-89
2023/09/15 11:12:23;;;;;;;6.90;3.15;;;21.20;99.90;;;;;;5019159;28;20210;-89
2023/09/15 11:14:49;;;;;;;5.30;2.90;;;21.20;99.90;;;;;;5019513;28;20175;-88
2023/09/15 11:17:17;;;;;;;8.50;3.35;;;21.40;99.90;;;;;;5019906;28;20202;-89
2023/09/15 11:19:43;;;;;;;6.28;3.78;;;21.60;99.90;;;;;;5020348;28;20203;-89
2023/09/15 11:22:11;;;;;;;7.10;3.33;;;21.60;99.90;;;;;;5020068;28;20194;-89
2023/09/15 11:24:37;;;;;;;6.03;3.33;;;21.70;99.90;;;;;;5019786;28;20206;-89
2023/09/15 11:27:03;;;;;;;7.45;3.08;;;21.80;99.90;;;;;;5020925;28;20523;-88
2023/09/15 11:29:30;;;;;;;5.70;3.20;;;22.00;99.90;;;;;;5030237;28;20203;-88
2023/09/15 11:31:58;;;;;;;8.35;3.15;;;22.20;99.90;;;;;;5039665;28;20178;-88
2023/09/15 11:34:24;;;;;;;4.25;2.90;;;22.50;99.90;;;;;;5035953;28;20255;-88
2023/09/15 11:36:56;;;;;;;5.53;2.95;;;22.70;99.90;;;;;;5020070;28;20183;-88
2023/09/15 11:39:22;;;;;;;4.75;3.00;;;22.80;99.90;;;;;;5020465;28;20206;-88
2023/09/15 11:41:53;;;;;;;5.05;2.50;;;22.80;99.90;;;;;;5020008;28;20657;-89
2023/09/15 11:44:26;;;;;;;9.00;3.17;;;23.10;99.90;;;;;;5019867;28;20199;-89
2023/09/15 11:46:58;;;;;;;6.95;3.20;;;23.30;99.90;;;;;;5021126;28;20168;-89
2023/09/15 11:49:25;;;;;;;3.53;2.70;;;23.50;99.90;;;;;;5020442;28;20210;-88
2023/09/15 11:51:53;;;;;;;4.90;3.15;;;23.50;99.90;;;;;;5019907;28;20217;-89
2023/09/15 11:54:20;;;;;;;3.83;2.80;;;23.60;99.90;;;;;;5020602;28;20179;-89
2023/09/15 11:56:46;;;;;;;4.78;2.92;;;23.70;99.90;;;;;;5020069;28;20179;-88
2023/09/15 11:59:13;;;;;;;7.72;3.13;;;23.70;99.90;;;;;;5019053;28;20270;-88
2023/09/15 12:01:40;;;;;;;4.57;2.60;;;23.70;99.90;;;;;;5018921;28;20527;-89
2023/09/15 12:04:07;;;;;;;3.75;2.80;;;23.50;99.90;;;;;;5037803;28;20223;-89
2023/09/15 12:06:33;;;;;;;4.63;2.90;;;23.60;99.90;;;;;;5019789;28;20183;-89
2023/09/15 12:08:58;;;;;;;4.85;2.70;;;23.70;99.90;;;;;;5019835;28;20175;-88
2023/09/15 12:11:24;;;;;;;4.88;2.58;;;23.80;99.90;;;;;;5037729;28;20167;-89
2023/09/15 12:13:54;;;;;;;5.32;3.10;;;24.20;99.90;;;;;;5019691;28;20668;-89
2023/09/15 12:16:28;;;;;;;5.45;2.67;;;24.40;99.90;;;;;;5019595;28;20259;-89
2023/09/15 12:18:55;;;;;;;4.32;2.53;;;24.20;99.90;;;;;;5019910;28;20179;-89
2023/09/15 12:21:24;;;;;;;7.05;2.90;;;24.50;99.90;;;;;;5020000;28;20558;-89
2023/09/15 12:23:54;;;;;;;7.35;2.75;;;24.60;99.90;;;;;;5020389;28;20211;-89
2023/09/15 12:26:21;;;;;;;4.05;2.55;;;24.60;99.90;;;;;;5036236;28;20167;-89
2023/09/15 12:28:48;;;;;;;6.70;2.85;;;24.70;99.90;;;;;;5037973;28;20163;-89
2023/09/15 12:31:18;;;;;;;6.80;2.80;;;24.70;99.90;;;;;;5020003;28;20191;-89
2023/09/15 12:33:52;;;;;;;5.30;2.70;;;24.80;99.90;;;;;;5018990;28;20179;-89
2023/09/15 12:36:19;;;;;;;4.32;2.85;;;24.80;99.90;;;;;;5019708;28;20202;-89
2023/09/15 12:38:45;;;;;;;4.65;3.30;;;24.60;99.90;;;;;;5037215;28;20190;-89
2023/09/15 12:41:11;;;;;;;4.85;3.20;;;24.60;99.90;;;;;;5018693;28;20194;-89
2023/09/15 12:43:37;;;;;;;5.55;2.95;;;24.60;99.90;;;;;;5018677;28;20202;-89
2023/09/15 12:46:05;;;;;;;5.30;2.90;;;24.80;99.90;;;;;;5035843;28;20179;-89
2023/09/15 12:48:32;;;;;;;5.45;2.70;;;25.00;99.90;;;;;;5036453;28;20171;-89
2023/09/15 12:50:57;;;;;;;5.03;2.50;;;25.20;99.90;;;;;;5035838;28;20199;-89